createdAt,value
2023-02-27T00:01:53.772Z,101131.47
2023-02-27T00:04:22.053Z,101132.88
2023-02-27T00:06:50.540Z,101137.14
2023-02-27T00:09:18.813Z,101134.30
2023-02-27T00:11:47.001Z,101130.98
2023-02-27T00:14:15.171Z,101122.06
2023-02-27T00:16:43.764Z,101121.39
2023-02-27T00:19:12.766Z,101122.48
2023-02-27T00:21:41.461Z,101120.88
2023-02-27T00:24:09.834Z,101120.69
2023-02-27T00:26:38.220Z,101120.06
2023-02-27T00:29:07.305Z,101121.33
2023-02-27T00:31:35.519Z,101121.77
2023-02-27T00:34:04.405Z,101131.73
2023-02-27T00:36:32.889Z,101135.33
2023-02-27T00:39:01.371Z,101133.75
2023-02-27T00:41:30.057Z,101132.33
2023-02-27T00:43:59.468Z,101139.11
2023-02-27T00:46:28.285Z,101140.49
2023-02-27T00:48:57.169Z,101141.16
2023-02-27T00:51:27.422Z,101144.32
2023-02-27T00:53:56.990Z,101145.95
2023-02-27T00:56:25.388Z,101141.49
2023-02-27T00:58:54.274Z,101140.99
2023-02-27T01:01:23.579Z,101143.27
2023-02-27T01:03:51.968Z,101147.38
2023-02-27T01:06:20.368Z,101145.16
2023-02-27T01:08:49.145Z,101146.02
2023-02-27T01:11:17.329Z,101147.06
2023-02-27T01:13:46.429Z,101149.19
2023-02-27T01:16:15.254Z,101145.76
2023-02-27T01:18:43.606Z,101144.64
2023-02-27T01:21:12.281Z,101149.89
2023-02-27T01:23:40.579Z,101152.33
2023-02-27T01:26:09.381Z,101154.56
2023-02-27T01:28:37.991Z,101153.81
2023-02-27T01:31:06.448Z,101153.45
2023-02-27T01:33:34.734Z,101154.39
2023-02-27T01:36:03.226Z,101154.59
2023-02-27T01:38:31.609Z,101159.19
2023-02-27T01:41:02.803Z,101160.27
2023-02-27T01:43:53.032Z,101159.95
2023-02-27T01:46:21.835Z,101165.52
2023-02-27T01:48:55.780Z,101171.81
2023-02-27T01:51:24.825Z,101178.58
2023-02-27T01:53:53.926Z,101178.88
2023-02-27T01:56:27.032Z,101182.95
2023-02-27T01:59:01.554Z,101186.20
2023-02-27T02:01:33.149Z,101185.76
2023-02-27T02:04:13.311Z,101188.05
2023-02-27T02:06:46.899Z,101186.77
2023-02-27T02:09:18.715Z,101183.56
2023-02-27T02:11:47.699Z,101180.42
2023-02-27T02:14:19.389Z,101174.33
2023-02-27T02:17:17.866Z,101173.12
2023-02-27T02:19:58.316Z,101169.83
2023-02-27T02:22:58.841Z,101170.08
2023-02-27T02:25:38.992Z,101165.97
2023-02-27T02:28:50.151Z,101172.85
2023-02-27T02:32:03.756Z,101178.84
2023-02-27T02:34:47.094Z,101194.52
2023-02-27T02:37:18.336Z,101202.98
2023-02-27T02:40:25.924Z,101204.13
2023-02-27T02:43:11.395Z,101207.74
2023-02-27T02:45:49.456Z,101202.16
2023-02-27T02:48:26.691Z,101193.38
2023-02-27T02:51:37.137Z,101189.94
2023-02-27T02:54:34.272Z,101196.33
2023-02-27T02:57:16.162Z,101198.83
2023-02-27T03:00:01.131Z,101199.61
2023-02-27T03:02:36.375Z,101205.39
2023-02-27T03:05:19.382Z,101210.77
2023-02-27T03:08:09.061Z,101220.98
2023-02-27T03:11:04.666Z,101233.33
2023-02-27T03:13:45.124Z,101233.73
2023-02-27T03:16:22.198Z,101242.27
2023-02-27T03:19:00.610Z,101241.26
2023-02-27T03:21:59.387Z,101244.78
2023-02-27T03:24:33.473Z,101248.17
2023-02-27T03:27:04.752Z,101242.98
2023-02-27T03:30:06.257Z,101238.90
2023-02-27T03:33:02.812Z,101234.23
2023-02-27T03:36:04.764Z,101230.95
2023-02-27T03:38:54.945Z,101223.62
2023-02-27T03:41:33.152Z,101225.36
2023-02-27T03:44:53.522Z,101225.73
2023-02-27T03:47:22.419Z,101225.73
2023-02-27T03:49:51.384Z,101228.09
2023-02-27T03:52:21.860Z,101221.30
2023-02-27T03:55:21.962Z,101221.98
2023-02-27T03:57:52.390Z,101220.08
2023-02-27T04:00:23.784Z,101218.73
2023-02-27T04:02:54.829Z,101225.32
2023-02-27T04:05:26.875Z,101229.77
2023-02-27T04:08:10.182Z,101233.01
2023-02-27T04:10:57.600Z,101238.88
2023-02-27T04:13:44.724Z,101238.80
2023-02-27T04:16:42.666Z,101234.00
2023-02-27T04:19:22.942Z,101242.89
2023-02-27T04:22:28.665Z,101240.18
2023-02-27T04:25:07.382Z,101240.54
2023-02-27T04:27:48.254Z,101243.11
2023-02-27T04:30:22.368Z,101244.05
2023-02-27T04:33:10.818Z,101242.47
2023-02-27T04:35:48.177Z,101237.54
2023-02-27T04:38:49.947Z,101248.07
2023-02-27T04:41:25.579Z,101253.71
2023-02-27T04:43:55.431Z,101258.68
2023-02-27T04:46:28.197Z,101260.58
2023-02-27T04:49:04.346Z,101261.17
2023-02-27T04:51:44.529Z,101259.14
2023-02-27T04:54:17.817Z,101254.09
2023-02-27T04:57:02.643Z,101255.04
2023-02-27T04:59:39.653Z,101257.71
2023-02-27T05:02:14.696Z,101262.79
2023-02-27T05:04:45.527Z,101259.84
2023-02-27T05:07:19.337Z,101263.33
2023-02-27T05:09:55.458Z,101270.86
2023-02-27T05:12:32.586Z,101278.06
2023-02-27T05:15:12.371Z,101278.98
2023-02-27T05:17:48.142Z,101284.31
2023-02-27T05:20:18.204Z,101286.42
2023-02-27T05:22:51.762Z,101283.23
2023-02-27T05:25:52.016Z,101287.42
2023-02-27T05:28:45.045Z,101291.46
2023-02-27T05:31:26.885Z,101294.20
2023-02-27T05:34:08.648Z,101297.94
2023-02-27T05:36:54.066Z,101307.81
2023-02-27T05:39:25.953Z,101304.73
2023-02-27T05:42:00.706Z,101310.36
2023-02-27T05:44:36.251Z,101313.08
2023-02-27T05:47:13.440Z,101324.02
2023-02-27T05:49:47.907Z,101321.79
2023-02-27T05:52:20.260Z,101329.42
2023-02-27T05:55:18.604Z,101331.45
2023-02-27T05:57:57.608Z,101339.85
2023-02-27T06:00:53.850Z,101338.88
2023-02-27T06:03:22.463Z,101336.93
2023-02-27T06:05:54.026Z,101342.58
2023-02-27T06:08:23.176Z,101340.48
2023-02-27T06:10:51.685Z,101334.89
2023-02-27T06:13:20.101Z,101339.94
2023-02-27T06:15:49.604Z,101333.54
2023-02-27T06:18:18.794Z,101329.63
2023-02-27T06:20:47.683Z,101329.73
2023-02-27T06:23:15.967Z,101331.71
2023-02-27T06:25:44.675Z,101339.17
2023-02-27T06:28:13.145Z,101339.82
2023-02-27T06:30:41.766Z,101345.53
2023-02-27T06:33:12.575Z,101342.98
2023-02-27T06:35:40.962Z,101344.49
2023-02-27T06:38:09.647Z,101345.64
2023-02-27T06:40:39.174Z,101353.90
2023-02-27T06:43:07.739Z,101359.06
2023-02-27T06:45:38.272Z,101370.86
2023-02-27T06:48:07.141Z,101373.45
2023-02-27T06:50:35.662Z,101377.63
2023-02-27T06:53:04.553Z,101376.04
2023-02-27T06:55:33.915Z,101373.17
2023-02-27T06:58:02.183Z,101374.70
2023-02-27T07:00:30.601Z,101372.83
2023-02-27T07:02:59.254Z,101370.52
2023-02-27T07:05:27.704Z,101370.31
2023-02-27T07:07:58.560Z,101367.13
2023-02-27T07:10:27.041Z,101372.41
2023-02-27T07:12:55.513Z,101375.33
2023-02-27T07:15:24.005Z,101381.89
2023-02-27T07:17:54.565Z,101378.13
2023-02-27T07:20:23.838Z,101381.30
2023-02-27T07:22:52.251Z,101376.04
2023-02-27T07:25:20.529Z,101375.77
2023-02-27T07:27:51.041Z,101377.10
2023-02-27T07:30:19.832Z,101371.83
2023-02-27T07:32:58.786Z,101372.20
2023-02-27T07:35:29.729Z,101373.67
2023-02-27T07:37:58.395Z,101374.08
2023-02-27T07:40:27.112Z,101374.33
2023-02-27T07:42:55.371Z,101378.32
2023-02-27T07:45:24.061Z,101374.92
2023-02-27T07:47:52.554Z,101365.02
2023-02-27T07:50:21.299Z,101362.73
2023-02-27T07:52:49.522Z,101364.33
2023-02-27T07:55:18.214Z,101367.71
2023-02-27T07:57:46.803Z,101372.84
2023-02-27T08:00:15.863Z,101376.96
2023-02-27T08:02:44.251Z,101378.71
2023-02-27T08:05:12.882Z,101382.23
2023-02-27T08:07:41.369Z,101380.63
2023-02-27T08:10:10.878Z,101378.90
2023-02-27T08:12:39.534Z,101377.80
2023-02-27T08:15:08.686Z,101377.33
2023-02-27T08:17:37.980Z,101384.98
2023-02-27T08:20:07.627Z,101378.90
2023-02-27T08:22:36.486Z,101377.11
2023-02-27T08:25:07.775Z,101380.52
2023-02-27T08:27:36.015Z,101381.58
2023-02-27T08:30:07.277Z,101380.66
2023-02-27T08:32:35.971Z,101384.84
2023-02-27T08:35:05.178Z,101387.61
2023-02-27T08:37:33.640Z,101384.02
2023-02-27T08:40:02.341Z,101381.90
2023-02-27T08:42:31.123Z,101384.85
2023-02-27T08:44:59.609Z,101386.10
2023-02-27T08:47:28.200Z,101394.20
2023-02-27T08:49:56.994Z,101401.95
2023-02-27T08:52:25.377Z,101406.87
2023-02-27T08:54:53.759Z,101410.90
2023-02-27T08:57:22.353Z,101415.23
2023-02-27T08:59:50.693Z,101418.02
2023-02-27T09:02:19.663Z,101423.11
2023-02-27T09:04:48.016Z,101423.79
2023-02-27T09:07:16.400Z,101427.13
2023-02-27T09:09:45.299Z,101426.48
2023-02-27T09:12:13.688Z,101429.20
2023-02-27T09:14:41.966Z,101434.58
2023-02-27T09:17:10.249Z,101434.66
2023-02-27T09:19:38.630Z,101431.02
2023-02-27T09:22:06.811Z,101431.89
2023-02-27T09:24:34.995Z,101436.39
2023-02-27T09:27:03.475Z,101437.75
2023-02-27T09:29:32.275Z,101439.75
2023-02-27T09:32:01.163Z,101444.55
2023-02-27T09:34:29.863Z,101443.48
2023-02-27T09:37:01.625Z,101447.44
2023-02-27T09:39:30.721Z,101448.38
2023-02-27T09:42:05.495Z,101446.07
2023-02-27T09:44:47.420Z,101441.73
2023-02-27T09:47:29.655Z,101440.21
2023-02-27T09:50:22.389Z,101443.34
2023-02-27T09:52:50.868Z,101446.63
2023-02-27T09:55:22.285Z,101452.71
2023-02-27T09:58:14.245Z,101454.59
2023-02-27T10:01:05.862Z,101456.74
2023-02-27T10:04:11.116Z,101460.91
2023-02-27T10:07:16.686Z,101461.88
2023-02-27T10:09:58.917Z,101462.65
2023-02-27T10:12:53.765Z,101464.15
2023-02-27T10:15:32.564Z,101464.66
2023-02-27T10:18:16.864Z,101464.33
2023-02-27T10:20:56.725Z,101462.33
2023-02-27T10:23:50.699Z,101466.27
2023-02-27T10:26:22.353Z,101467.27
2023-02-27T10:28:50.639Z,101470.05
2023-02-27T10:31:24.446Z,101468.72
2023-02-27T10:33:52.725Z,101467.67
2023-02-27T10:36:33.018Z,101470.48
2023-02-27T10:39:07.952Z,101468.27
2023-02-27T10:41:39.927Z,101465.75
2023-02-27T10:44:11.134Z,101460.77
2023-02-27T10:46:41.257Z,101457.88
2023-02-27T10:49:19.397Z,101454.81
2023-02-27T10:52:06.217Z,101449.08
2023-02-27T10:54:35.115Z,101448.29
2023-02-27T10:57:18.594Z,101447.15
2023-02-27T11:00:09.797Z,101453.36
2023-02-27T11:02:43.479Z,101457.58
2023-02-27T11:05:27.560Z,101457.64
2023-02-27T11:08:11.373Z,101455.59
2023-02-27T11:10:57.774Z,101453.05
2023-02-27T11:13:29.733Z,101453.55
2023-02-27T11:16:09.119Z,101454.59
2023-02-27T11:18:40.121Z,101461.93
2023-02-27T11:21:11.783Z,101465.16
2023-02-27T11:24:06.488Z,101466.95
2023-02-27T11:26:40.496Z,101468.12
2023-02-27T11:29:16.028Z,101473.23
2023-02-27T11:31:55.051Z,101470.40
2023-02-27T11:34:34.074Z,101470.63
2023-02-27T11:37:07.925Z,101473.30
2023-02-27T11:39:48.775Z,101480.20
2023-02-27T11:42:19.100Z,101487.52
2023-02-27T11:45:01.843Z,101486.60
2023-02-27T11:47:36.311Z,101485.20
2023-02-27T11:50:24.504Z,101486.80
2023-02-27T11:53:01.957Z,101497.94
2023-02-27T11:55:32.556Z,101507.64
2023-02-27T11:58:29.825Z,101516.39
2023-02-27T12:01:15.405Z,101520.52
2023-02-27T12:03:43.630Z,101523.40
2023-02-27T12:06:28.953Z,101523.91
2023-02-27T12:09:05.624Z,101517.56
2023-02-27T12:11:42.277Z,101507.84
2023-02-27T12:14:41.429Z,101516.27
2023-02-27T12:17:22.986Z,101535.03
2023-02-27T12:20:05.065Z,101534.61
2023-02-27T12:22:38.983Z,101528.15
2023-02-27T12:25:17.799Z,101531.71
2023-02-27T12:28:01.019Z,101541.77
2023-02-27T12:30:40.255Z,101546.70
2023-02-27T12:33:36.369Z,101553.36
2023-02-27T12:36:10.380Z,101558.00
2023-02-27T12:38:39.388Z,101565.83
2023-02-27T12:41:38.068Z,101578.51
2023-02-27T12:44:37.862Z,101590.52
2023-02-27T12:47:24.178Z,101586.19
2023-02-27T12:50:13.007Z,101590.23
2023-02-27T12:52:56.524Z,101598.11
2023-02-27T12:55:32.072Z,101599.05
2023-02-27T12:58:12.958Z,101603.14
2023-02-27T13:00:47.118Z,101602.05
2023-02-27T13:03:28.846Z,101604.02
2023-02-27T13:06:17.010Z,101614.30
2023-02-27T13:09:03.635Z,101618.02
2023-02-27T13:12:08.811Z,101619.02
2023-02-27T13:14:49.176Z,101624.39
2023-02-27T13:17:23.508Z,101629.95
2023-02-27T13:19:55.045Z,101640.86
2023-02-27T13:22:38.681Z,101651.29
2023-02-27T13:25:14.553Z,101654.55
2023-02-27T13:27:56.226Z,101658.76
2023-02-27T13:30:39.545Z,101663.00
2023-02-27T13:33:14.223Z,101671.04
2023-02-27T13:35:54.741Z,101681.20
2023-02-27T13:38:46.214Z,101687.41
2023-02-27T13:41:20.999Z,101700.51
2023-02-27T13:44:00.330Z,101706.55
2023-02-27T13:46:33.963Z,101714.17
2023-02-27T13:49:05.889Z,101712.63
2023-02-27T13:51:41.332Z,101710.08
2023-02-27T13:54:18.619Z,101707.07
2023-02-27T13:56:47.000Z,101712.00
2023-02-27T13:59:21.220Z,101713.60
2023-02-27T14:02:03.823Z,101710.60
2023-02-27T14:04:35.897Z,101691.58
2023-02-27T14:07:12.124Z,101681.46
2023-02-27T14:09:44.824Z,101694.69
2023-02-27T14:12:42.493Z,101711.33
2023-02-27T14:15:22.298Z,101722.05
2023-02-27T14:18:09.303Z,101730.83
2023-02-27T14:20:40.143Z,101734.55
2023-02-27T14:23:17.507Z,101739.45
2023-02-27T14:26:14.712Z,101742.38
2023-02-27T14:28:55.940Z,101750.80
2023-02-27T14:31:32.565Z,101758.43
2023-02-27T14:34:06.088Z,101771.32
2023-02-27T14:36:41.816Z,101779.31
2023-02-27T14:39:35.683Z,101779.48
2023-02-27T14:42:22.839Z,101782.16
2023-02-27T14:44:53.026Z,101782.49
2023-02-27T14:47:38.731Z,101782.90
2023-02-27T14:50:22.820Z,101785.22
2023-02-27T14:52:51.137Z,101783.70
2023-02-27T14:55:29.982Z,101786.29
2023-02-27T14:58:08.483Z,101785.80
2023-02-27T15:00:41.049Z,101787.61
2023-02-27T15:03:34.698Z,101788.67
2023-02-27T15:06:12.508Z,101794.52
2023-02-27T15:08:45.385Z,101793.00
2023-02-27T15:11:20.048Z,101800.52
2023-02-27T15:13:56.915Z,101804.52
2023-02-27T15:16:35.492Z,101811.39
2023-02-27T15:19:20.174Z,101814.27
2023-02-27T15:21:52.668Z,101816.19
2023-02-27T15:24:37.822Z,101825.17
2023-02-27T15:27:22.830Z,101825.86
2023-02-27T15:29:55.004Z,101830.80
2023-02-27T15:32:35.822Z,101832.90
2023-02-27T15:35:15.100Z,101840.93
2023-02-27T15:37:50.807Z,101846.95
2023-02-27T15:40:22.974Z,101852.95
2023-02-27T15:42:54.529Z,101857.05
2023-02-27T15:45:27.929Z,101861.38
2023-02-27T15:47:56.994Z,101864.04
2023-02-27T15:50:33.712Z,101870.70
2023-02-27T15:53:11.109Z,101876.19
2023-02-27T15:55:51.557Z,101877.02
2023-02-27T15:58:27.121Z,101885.94
2023-02-27T16:01:19.500Z,101888.82
2023-02-27T16:03:50.874Z,101895.91
2023-02-27T16:06:39.258Z,101908.20
2023-02-27T16:09:19.994Z,101912.10
2023-02-27T16:11:49.566Z,101915.38
2023-02-27T16:14:42.973Z,101916.73
2023-02-27T16:17:29.385Z,101919.39
2023-02-27T16:20:02.077Z,101923.21
2023-02-27T16:22:30.744Z,101928.64
2023-02-27T16:25:12.098Z,101930.61
2023-02-27T16:27:40.491Z,101942.60
2023-02-27T16:30:12.925Z,101944.91
2023-02-27T16:32:44.320Z,101949.60
2023-02-27T16:35:21.587Z,101953.75
2023-02-27T16:37:50.954Z,101959.33
2023-02-27T16:40:22.705Z,101969.56
2023-02-27T16:42:52.178Z,101982.10
2023-02-27T16:45:26.212Z,101987.97
2023-02-27T16:47:59.959Z,101994.51
2023-02-27T16:50:28.269Z,102001.83
2023-02-27T16:52:57.644Z,102005.88
2023-02-27T16:55:26.909Z,102013.62
2023-02-27T16:57:55.284Z,102020.55
2023-02-27T17:00:23.561Z,102028.52
2023-02-27T17:02:52.161Z,102034.27
2023-02-27T17:05:20.641Z,102033.30
2023-02-27T17:07:49.228Z,102036.45
2023-02-27T17:10:22.119Z,102038.26
2023-02-27T17:12:50.705Z,102047.08
2023-02-27T17:15:19.502Z,102050.14
2023-02-27T17:17:47.785Z,102051.38
2023-02-27T17:20:17.600Z,102056.64
2023-02-27T17:22:45.995Z,102058.67
2023-02-27T17:25:14.471Z,102064.30
2023-02-27T17:27:43.942Z,102070.11
2023-02-27T17:30:14.075Z,102069.14
2023-02-27T17:32:45.151Z,102072.39
2023-02-27T17:35:13.534Z,102081.30
2023-02-27T17:37:42.350Z,102084.41
2023-02-27T17:40:12.391Z,102085.45
2023-02-27T17:42:40.853Z,102081.22
2023-02-27T17:45:10.621Z,102086.02
2023-02-27T17:47:39.147Z,102081.76
2023-02-27T17:50:09.548Z,102079.33
2023-02-27T17:52:37.975Z,102078.46
2023-02-27T17:55:08.775Z,102087.04
2023-02-27T17:57:39.233Z,102085.38
2023-02-27T18:00:10.707Z,102084.20
2023-02-27T18:02:39.010Z,102085.13
2023-02-27T18:05:08.042Z,102085.19
2023-02-27T18:07:36.757Z,102084.30
2023-02-27T18:10:07.271Z,102089.09
2023-02-27T18:12:36.632Z,102092.23
2023-02-27T18:15:07.202Z,102089.90
2023-02-27T18:17:35.614Z,102096.36
2023-02-27T18:20:05.350Z,102092.73
2023-02-27T18:22:33.930Z,102096.73
2023-02-27T18:25:02.427Z,102100.44
2023-02-27T18:27:30.794Z,102106.95
2023-02-27T18:29:59.382Z,102104.73
2023-02-27T18:32:27.862Z,102104.50
2023-02-27T18:34:57.323Z,102102.02
2023-02-27T18:37:25.550Z,102103.16
2023-02-27T18:39:54.345Z,102107.66
2023-02-27T18:42:22.938Z,102107.00
2023-02-27T18:44:51.541Z,102116.15
2023-02-27T18:47:20.101Z,102120.52
2023-02-27T18:49:48.498Z,102124.17
2023-02-27T18:52:18.460Z,102127.45
2023-02-27T18:54:47.353Z,102132.45
2023-02-27T18:57:16.402Z,102138.25
2023-02-27T18:59:46.755Z,102146.51
2023-02-27T19:02:17.178Z,102142.67
2023-02-27T19:04:48.024Z,102146.25
2023-02-27T19:07:16.939Z,102154.02
2023-02-27T19:09:45.298Z,102156.67
2023-02-27T19:12:13.580Z,102167.16
2023-02-27T19:14:41.860Z,102174.08
2023-02-27T19:17:10.246Z,102177.70
2023-02-27T19:19:38.837Z,102174.77
2023-02-27T19:22:07.357Z,102178.59
2023-02-27T19:24:35.598Z,102174.70
2023-02-27T19:27:04.680Z,102170.52
2023-02-27T19:29:33.398Z,102176.27
2023-02-27T19:32:02.366Z,102178.94
2023-02-27T19:34:30.984Z,102185.67
2023-02-27T19:36:59.262Z,102191.68
2023-02-27T19:39:28.478Z,102201.09
2023-02-27T19:41:56.963Z,102210.77
2023-02-27T19:44:26.771Z,102214.50
2023-02-27T19:46:55.217Z,102217.52
2023-02-27T19:49:24.054Z,102228.52
2023-02-27T19:51:52.538Z,102227.95
2023-02-27T19:54:20.925Z,102233.64
2023-02-27T19:56:49.414Z,102233.26
2023-02-27T19:59:18.410Z,102242.26
2023-02-27T20:01:46.697Z,102244.80
2023-02-27T20:04:15.460Z,102249.23
2023-02-27T20:06:46.743Z,102246.61
2023-02-27T20:09:18.093Z,102246.98
2023-02-27T20:11:48.828Z,102240.36
2023-02-27T20:14:17.630Z,102240.76
2023-02-27T20:16:46.577Z,102241.98
2023-02-27T20:19:17.982Z,102246.92
2023-02-27T20:21:47.230Z,102244.73
2023-02-27T20:24:18.236Z,102247.45
2023-02-27T20:26:52.543Z,102252.96
2023-02-27T20:29:23.578Z,102254.79
2023-02-27T20:31:54.591Z,102260.79
2023-02-27T20:34:26.437Z,102260.61
2023-02-27T20:36:55.891Z,102258.38
2023-02-27T20:39:25.010Z,102259.41
2023-02-27T20:41:53.409Z,102260.86
2023-02-27T20:44:22.165Z,102266.42
2023-02-27T20:46:50.864Z,102263.90
2023-02-27T20:49:19.147Z,102262.92
2023-02-27T20:51:47.429Z,102262.36
2023-02-27T20:54:20.497Z,102263.67
2023-02-27T20:56:55.458Z,102266.58
2023-02-27T20:59:27.533Z,102267.46
2023-02-27T21:01:56.125Z,102278.58
2023-02-27T21:04:42.534Z,102278.70
2023-02-27T21:07:17.171Z,102264.90
2023-02-27T21:09:45.629Z,102261.95
2023-02-27T21:12:14.029Z,102264.60
2023-02-27T21:14:44.526Z,102275.23
2023-02-27T21:17:13.968Z,102281.15
2023-02-27T21:19:42.337Z,102281.35
2023-02-27T21:22:11.484Z,102291.13
2023-02-27T21:24:40.046Z,102297.67
2023-02-27T21:27:08.524Z,102295.72
2023-02-27T21:29:37.005Z,102304.34
2023-02-27T21:32:07.412Z,102310.42
2023-02-27T21:34:35.916Z,102316.96
2023-02-27T21:37:06.443Z,102310.05
2023-02-27T21:39:35.040Z,102309.63
2023-02-27T21:42:04.140Z,102307.64
2023-02-27T21:44:32.939Z,102314.81
2023-02-27T21:47:10.089Z,102314.77
2023-02-27T21:49:39.650Z,102310.74
2023-02-27T21:52:07.901Z,102311.24
2023-02-27T21:54:37.828Z,102317.14
2023-02-27T21:57:06.440Z,102323.17
2023-02-27T21:59:35.819Z,102320.55
2023-02-27T22:02:05.817Z,102318.83
2023-02-27T22:04:34.032Z,102323.79
2023-02-27T22:07:02.311Z,102324.95
2023-02-27T22:09:30.899Z,102327.18
2023-02-27T22:11:59.300Z,102336.76
2023-02-27T22:14:27.560Z,102336.23
2023-02-27T22:16:56.455Z,102338.34
2023-02-27T22:19:25.055Z,102343.73
2023-02-27T22:21:53.431Z,102349.12
2023-02-27T22:24:21.714Z,102350.84
2023-02-27T22:26:50.618Z,102351.38
2023-02-27T22:29:19.458Z,102347.98
2023-02-27T22:31:47.913Z,102351.76
2023-02-27T22:34:18.705Z,102352.27
2023-02-27T22:36:48.893Z,102354.58
2023-02-27T22:39:17.244Z,102354.02
2023-02-27T22:41:46.370Z,102357.94
2023-02-27T22:44:15.927Z,102365.25
2023-02-27T22:46:47.994Z,102368.72
2023-02-27T22:49:22.546Z,102372.23
2023-02-27T22:51:52.180Z,102372.58
2023-02-27T22:54:22.834Z,102372.55
2023-02-27T22:56:53.212Z,102369.16
2023-02-27T22:59:22.666Z,102371.59
2023-02-27T23:01:51.144Z,102368.55
2023-02-27T23:04:22.356Z,102373.24
2023-02-27T23:06:52.649Z,102369.46
2023-02-27T23:09:24.367Z,102366.15
2023-02-27T23:11:54.441Z,102365.60
2023-02-27T23:14:23.188Z,102367.73
2023-02-27T23:16:51.850Z,102372.83
2023-02-27T23:19:21.982Z,102372.14
2023-02-27T23:21:50.398Z,102372.36
2023-02-27T23:24:20.097Z,102373.61
2023-02-27T23:26:50.595Z,102381.61
2023-02-27T23:29:19.541Z,102383.98
2023-02-27T23:31:48.202Z,102383.50
2023-02-27T23:34:16.804Z,102386.02
2023-02-27T23:36:45.185Z,102387.65
2023-02-27T23:39:13.664Z,102392.83
2023-02-27T23:41:42.767Z,102398.23
2023-02-27T23:44:11.154Z,102400.81
2023-02-27T23:46:40.870Z,102403.13
2023-02-27T23:49:09.558Z,102404.77
2023-02-27T23:51:38.254Z,102406.60
2023-02-27T23:54:06.553Z,102408.95
2023-02-27T23:56:35.325Z,102417.27
2023-02-27T23:59:06.797Z,102415.81
